createdAt,value
2022-07-29T00:02:34.000Z,1.30
2022-07-29T00:05:43.411Z,1.27
2022-07-29T00:08:48.934Z,1.50
2022-07-29T00:11:56.689Z,1.27
2022-07-29T00:15:04.975Z,1.40
2022-07-29T00:18:12.609Z,1.33
2022-07-29T00:21:18.059Z,1.23
2022-07-29T00:24:25.748Z,1.20
2022-07-29T00:27:31.361Z,1.30
2022-07-29T00:30:44.362Z,1.20
2022-07-29T00:33:49.926Z,1.17
2022-07-29T00:36:54.692Z,1.27
2022-07-29T00:40:00.116Z,1.02
2022-07-29T00:43:07.825Z,1.27
2022-07-29T00:46:16.605Z,1.10
2022-07-29T00:49:24.510Z,1.40
2022-07-29T00:52:30.401Z,1.15
2022-07-29T00:55:38.565Z,1.25
2022-07-29T00:58:44.573Z,1.20
2022-07-29T01:01:54.867Z,1.23
2022-07-29T01:05:01.386Z,1.08
2022-07-29T01:08:10.200Z,1.20
2022-07-29T01:11:16.460Z,1.10
2022-07-29T01:14:25.948Z,1.33
2022-07-29T01:17:40.287Z,1.20
2022-07-29T01:21:29.007Z,1.10
2022-07-29T01:24:45.415Z,1.23
2022-07-29T01:28:12.584Z,1.30
2022-07-29T01:31:26.588Z,0.98
2022-07-29T01:34:43.407Z,1.02
2022-07-29T01:37:52.963Z,1.00
2022-07-29T01:41:09.656Z,1.02
2022-07-29T01:44:19.718Z,0.90
2022-07-29T01:47:35.882Z,1.33
2022-07-29T01:50:49.804Z,1.02
2022-07-29T01:54:02.983Z,1.02
2022-07-29T01:57:11.454Z,1.10
2022-07-29T02:00:21.267Z,0.90
2022-07-29T02:03:31.369Z,1.00
2022-07-29T02:06:41.496Z,1.10
2022-07-29T02:09:48.209Z,1.20
2022-07-29T02:12:56.748Z,1.00
2022-07-29T02:16:04.368Z,1.10
2022-07-29T02:19:15.926Z,1.30
2022-07-29T02:22:24.109Z,0.93
2022-07-29T02:25:38.117Z,1.00
2022-07-29T02:28:45.369Z,1.00
2022-07-29T02:31:55.028Z,0.90
2022-07-29T02:35:04.164Z,0.95
2022-07-29T02:38:28.750Z,1.10
2022-07-29T02:41:39.601Z,0.80
2022-07-29T02:44:47.586Z,0.80
2022-07-29T02:47:54.871Z,0.80
2022-07-29T02:51:12.780Z,1.10
2022-07-29T02:54:43.663Z,0.90
2022-07-29T02:57:55.775Z,1.08
2022-07-29T03:01:03.999Z,1.00
2022-07-29T03:04:14.467Z,0.90
2022-07-29T03:07:24.751Z,0.80
2022-07-29T03:10:32.682Z,1.00
2022-07-29T03:17:23.293Z,0.90
2022-07-29T03:20:29.806Z,0.90
2022-07-29T03:23:40.137Z,1.00
2022-07-29T03:26:46.003Z,0.90
2022-07-29T03:29:53.433Z,0.90
2022-07-29T03:32:59.146Z,0.70
2022-07-29T03:36:06.994Z,0.80
2022-07-29T03:39:17.433Z,0.90
2022-07-29T03:42:29.903Z,1.00
2022-07-29T03:45:39.165Z,0.77
2022-07-29T03:48:52.954Z,0.80
2022-07-29T03:51:59.000Z,0.80
2022-07-29T03:55:10.989Z,0.85
2022-07-29T03:58:17.898Z,0.85
2022-07-29T04:01:26.723Z,0.80
2022-07-29T04:04:32.764Z,1.00
2022-07-29T04:07:43.588Z,1.00
2022-07-29T04:10:53.238Z,0.90
2022-07-29T04:14:00.809Z,0.80
2022-07-29T04:17:07.388Z,0.90
2022-07-29T04:20:16.153Z,0.82
2022-07-29T04:23:22.712Z,1.10
2022-07-29T04:26:33.245Z,1.00
2022-07-29T04:29:56.486Z,0.95
2022-07-29T04:33:05.220Z,0.80
2022-07-29T04:36:28.808Z,1.00
2022-07-29T04:39:37.353Z,0.80
2022-07-29T04:42:46.840Z,0.75
2022-07-29T04:45:56.134Z,0.90
2022-07-29T04:49:01.831Z,0.80
2022-07-29T04:52:10.057Z,0.90
2022-07-29T04:55:16.119Z,0.82
2022-07-29T04:58:27.573Z,0.95
2022-07-29T05:01:33.422Z,0.82
2022-07-29T05:04:41.218Z,1.00
2022-07-29T05:07:46.996Z,0.88
2022-07-29T05:10:54.678Z,0.75
2022-07-29T05:14:03.020Z,0.90
2022-07-29T05:17:11.019Z,0.73
2022-07-29T05:20:16.647Z,1.00
2022-07-29T05:23:24.139Z,0.82
2022-07-29T05:26:29.830Z,0.90
2022-07-29T05:29:44.028Z,0.75
2022-07-29T05:32:51.439Z,0.80
2022-07-29T05:36:00.837Z,0.80
2022-07-29T05:39:06.649Z,0.90
2022-07-29T05:42:14.493Z,0.80
2022-07-29T05:45:22.897Z,0.90
2022-07-29T05:48:30.573Z,1.00
2022-07-29T05:51:36.403Z,0.80
2022-07-29T05:54:44.452Z,0.90
2022-07-29T05:57:50.201Z,0.80
2022-07-29T06:01:01.990Z,0.98
2022-07-29T06:07:15.522Z,0.90
2022-07-29T06:10:21.064Z,0.82
2022-07-29T06:13:33.763Z,0.90
2022-07-29T06:16:42.505Z,0.90
2022-07-29T06:19:50.437Z,1.00
2022-07-29T06:22:55.879Z,0.80
2022-07-29T06:26:03.919Z,0.80
2022-07-29T06:29:09.545Z,1.00
2022-07-29T06:32:20.433Z,0.90
2022-07-29T06:35:38.516Z,0.90
2022-07-29T06:38:50.520Z,0.88
2022-07-29T06:41:57.686Z,1.00
2022-07-29T06:45:09.289Z,0.90
2022-07-29T06:48:17.839Z,0.98
2022-07-29T06:51:26.428Z,1.00
2022-07-29T06:54:34.083Z,0.93
2022-07-29T06:57:39.891Z,1.35
2022-07-29T07:00:47.508Z,0.85
2022-07-29T07:03:56.202Z,0.90
2022-07-29T07:07:03.796Z,1.08
2022-07-29T07:10:10.465Z,0.80
2022-07-29T07:13:21.312Z,1.10
2022-07-29T07:16:30.037Z,0.85
2022-07-29T07:19:40.767Z,0.80
2022-07-29T07:22:46.389Z,0.77
2022-07-29T07:25:54.163Z,0.82
2022-07-29T07:29:01.600Z,0.98
2022-07-29T07:32:09.897Z,1.05
2022-07-29T07:35:18.496Z,1.05
2022-07-29T07:38:26.107Z,0.82
2022-07-29T07:41:39.832Z,0.85
2022-07-29T07:45:11.966Z,1.13
2022-07-29T07:48:14.364Z,0.90
2022-07-29T07:51:23.089Z,0.73
2022-07-29T07:54:30.840Z,0.80
2022-07-29T07:57:36.718Z,1.00
2022-07-29T08:00:44.540Z,0.80
2022-07-29T08:03:50.353Z,0.70
2022-07-29T08:07:01.658Z,0.80
2022-07-29T08:10:08.317Z,0.88
2022-07-29T08:13:19.273Z,0.85
2022-07-29T08:16:28.836Z,1.00
2022-07-29T08:19:34.890Z,0.90
2022-07-29T08:22:54.959Z,0.98
2022-07-29T08:26:04.807Z,1.00
2022-07-29T08:29:19.927Z,1.00
2022-07-29T08:32:52.730Z,1.05
2022-07-29T08:36:03.430Z,0.95
2022-07-29T08:39:22.350Z,1.00
2022-07-29T08:42:39.887Z,0.88
2022-07-29T08:45:57.213Z,0.98
2022-07-29T08:49:40.549Z,1.00
2022-07-29T08:53:21.238Z,1.00
2022-07-29T08:56:48.264Z,1.17
2022-07-29T09:00:02.495Z,1.00
2022-07-29T09:03:28.699Z,0.90
2022-07-29T09:06:45.776Z,1.17
2022-07-29T09:09:52.097Z,1.00
2022-07-29T09:13:02.863Z,0.95
2022-07-29T09:16:09.688Z,0.93
2022-07-29T09:19:25.459Z,1.00
2022-07-29T09:22:38.798Z,1.20
2022-07-29T09:25:49.119Z,1.10
2022-07-29T09:28:57.671Z,1.02
2022-07-29T09:32:09.674Z,0.98
2022-07-29T09:35:23.179Z,0.90
2022-07-29T09:38:35.258Z,1.00
2022-07-29T09:41:56.128Z,1.42
2022-07-29T09:45:06.833Z,1.00
2022-07-29T09:48:20.108Z,0.95
2022-07-29T09:51:38.250Z,0.80
2022-07-29T09:54:44.389Z,1.17
2022-07-29T09:57:52.400Z,1.00
2022-07-29T10:01:01.542Z,0.93
2022-07-29T10:04:12.655Z,1.05
2022-07-29T10:07:21.549Z,1.08
2022-07-29T10:10:35.090Z,0.80
2022-07-29T10:13:40.771Z,1.00
2022-07-29T10:16:58.417Z,1.00
2022-07-29T10:20:04.234Z,1.10
2022-07-29T10:23:13.224Z,1.00
2022-07-29T10:26:20.681Z,1.00
2022-07-29T10:29:35.743Z,0.90
2022-07-29T10:33:10.914Z,0.88
2022-07-29T10:36:47.133Z,1.10
2022-07-29T10:40:23.961Z,1.27
2022-07-29T10:43:37.461Z,1.00
2022-07-29T10:46:44.902Z,1.02
2022-07-29T10:50:04.143Z,1.23
2022-07-29T10:53:09.948Z,1.15
2022-07-29T10:56:32.168Z,1.33
2022-07-29T10:59:37.955Z,1.00
2022-07-29T11:02:52.409Z,0.90
2022-07-29T11:06:01.600Z,1.20
2022-07-29T11:09:25.895Z,1.10
2022-07-29T11:12:52.874Z,1.00
2022-07-29T11:16:02.156Z,1.15
2022-07-29T11:19:30.706Z,1.10
2022-07-29T11:22:45.877Z,1.70
2022-07-29T11:26:23.048Z,1.45
2022-07-29T11:29:31.485Z,1.35
2022-07-29T11:32:48.947Z,1.40
2022-07-29T11:39:44.930Z,1.30
2022-07-29T11:42:59.813Z,1.23
2022-07-29T11:46:06.239Z,1.63
2022-07-29T11:49:31.613Z,1.45
2022-07-29T11:52:49.450Z,1.50
2022-07-29T11:59:33.513Z,1.40
2022-07-29T12:02:48.187Z,1.30
2022-07-29T12:05:54.595Z,1.40
2022-07-29T12:07:02.363Z,1.50
2022-07-29T12:09:14.696Z,1.52
2022-07-29T12:12:24.525Z,1.23
2022-07-29T12:15:46.117Z,1.33
2022-07-29T12:19:04.070Z,1.30
2022-07-29T12:22:12.485Z,1.40
2022-07-29T12:25:35.192Z,1.40
2022-07-29T12:28:47.142Z,1.20
2022-07-29T12:31:58.540Z,1.30
2022-07-29T12:35:10.634Z,1.20
2022-07-29T12:38:16.843Z,1.30
2022-07-29T12:41:24.379Z,1.60
2022-07-29T12:44:48.369Z,1.30
2022-07-29T12:47:56.492Z,1.30
2022-07-29T12:51:04.375Z,1.23
2022-07-29T12:54:14.679Z,1.42
2022-07-29T12:57:20.503Z,1.73
2022-07-29T13:00:30.999Z,1.58
2022-07-29T13:03:56.941Z,1.50
2022-07-29T13:07:08.469Z,1.30
2022-07-29T13:10:19.017Z,1.67
2022-07-29T13:13:31.713Z,1.50
2022-07-29T13:16:41.805Z,1.45
2022-07-29T13:19:50.923Z,1.45
2022-07-29T13:22:56.758Z,1.30
2022-07-29T13:26:10.865Z,1.50
2022-07-29T13:29:16.381Z,1.60
2022-07-29T13:32:27.924Z,1.65
2022-07-29T13:35:34.379Z,1.90
2022-07-29T13:38:47.697Z,1.70
2022-07-29T13:41:56.601Z,1.60
2022-07-29T13:45:05.858Z,1.50
2022-07-29T13:48:14.754Z,1.70
2022-07-29T13:51:22.382Z,1.35
2022-07-29T13:54:28.006Z,1.60
2022-07-29T13:57:35.612Z,1.85
2022-07-29T14:00:41.279Z,1.50
2022-07-29T14:03:51.732Z,1.85
2022-07-29T14:06:57.432Z,1.70
2022-07-29T14:10:05.353Z,1.67
2022-07-29T14:13:24.247Z,1.95
2022-07-29T14:16:33.261Z,1.92
2022-07-29T14:19:41.760Z,1.67
2022-07-29T14:22:49.696Z,1.88
2022-07-29T14:25:56.354Z,1.45
2022-07-29T14:29:04.519Z,1.77
2022-07-29T14:32:11.750Z,1.58
2022-07-29T14:35:22.392Z,1.80
2022-07-29T14:38:27.919Z,1.70
2022-07-29T14:41:35.364Z,2.00
2022-07-29T14:44:41.405Z,1.70
2022-07-29T14:47:50.839Z,1.90
2022-07-29T14:51:04.380Z,1.48
2022-07-29T14:54:12.794Z,1.73
2022-07-29T14:57:18.380Z,1.52
2022-07-29T15:00:26.183Z,1.50
2022-07-29T15:03:33.852Z,1.75
2022-07-29T15:06:44.454Z,1.70
2022-07-29T15:09:50.222Z,1.70
2022-07-29T15:12:57.946Z,1.50
2022-07-29T15:16:03.686Z,1.92
2022-07-29T15:19:11.320Z,1.67
2022-07-29T15:22:19.726Z,1.48
2022-07-29T15:25:28.628Z,1.52
2022-07-29T15:28:34.142Z,1.75
2022-07-29T15:31:41.839Z,1.88
2022-07-29T15:34:47.431Z,1.70
2022-07-29T15:37:57.727Z,1.90
2022-07-29T15:41:03.456Z,1.80
2022-07-29T15:44:11.196Z,1.70
2022-07-29T15:47:17.144Z,1.67
2022-07-29T15:50:24.968Z,1.80
2022-07-29T15:53:33.386Z,1.60
2022-07-29T15:56:43.173Z,1.80
2022-07-29T15:59:49.647Z,1.80
2022-07-29T16:02:57.242Z,1.67
2022-07-29T16:06:02.907Z,1.70
2022-07-29T16:09:13.813Z,1.85
2022-07-29T16:12:19.431Z,1.50
2022-07-29T16:15:27.681Z,1.80
2022-07-29T16:18:34.567Z,1.67
2022-07-29T16:21:45.415Z,1.90
2022-07-29T16:24:55.163Z,1.73
2022-07-29T16:28:02.997Z,1.67
2022-07-29T16:31:09.000Z,1.55
2022-07-29T16:34:16.613Z,1.40
2022-07-29T16:37:24.889Z,1.90
2022-07-29T16:40:44.112Z,1.70
2022-07-29T16:43:49.815Z,1.75
2022-07-29T16:47:02.180Z,1.70
2022-07-29T16:50:11.963Z,1.45
2022-07-29T16:53:19.979Z,1.50
2022-07-29T16:56:28.216Z,1.70
2022-07-29T16:59:35.797Z,1.55
2022-07-29T17:02:49.544Z,1.58
2022-07-29T17:05:59.736Z,1.70
2022-07-29T17:09:06.061Z,1.40
2022-07-29T17:12:16.489Z,1.70
2022-07-29T17:15:22.239Z,1.63
2022-07-29T17:18:29.682Z,1.70
2022-07-29T17:21:35.471Z,1.60
2022-07-29T17:24:43.091Z,1.52
2022-07-29T17:27:51.556Z,1.40
2022-07-29T17:30:59.194Z,1.45
2022-07-29T17:34:06.773Z,1.45
2022-07-29T17:37:15.402Z,1.88
2022-07-29T17:40:20.895Z,1.60
2022-07-29T17:43:31.197Z,1.70
2022-07-29T17:46:36.770Z,1.90
2022-07-29T17:49:44.951Z,1.70
2022-07-29T17:52:50.542Z,1.50
2022-07-29T17:55:58.946Z,1.83
2022-07-29T17:59:10.538Z,1.70
2022-07-29T18:02:18.330Z,1.67
2022-07-29T18:05:24.343Z,2.17
2022-07-29T18:08:32.194Z,1.77
2022-07-29T18:11:37.631Z,2.10
2022-07-29T18:14:49.241Z,1.67
2022-07-29T18:17:57.765Z,2.00
2022-07-29T18:21:06.329Z,2.78
2022-07-29T18:24:12.307Z,2.22
2022-07-29T18:27:20.498Z,2.55
2022-07-29T18:30:29.531Z,3.15
2022-07-29T18:33:37.203Z,2.55
2022-07-29T18:36:42.584Z,2.75
2022-07-29T18:39:50.016Z,2.65
2022-07-29T18:42:55.574Z,2.70
2022-07-29T18:46:07.125Z,2.50
2022-07-29T18:49:13.654Z,2.30
2022-07-29T18:52:21.335Z,2.40
2022-07-29T18:55:27.002Z,2.20
2022-07-29T18:58:34.438Z,2.13
2022-07-29T19:01:43.088Z,2.40
2022-07-29T19:04:51.319Z,2.10
2022-07-29T19:07:57.827Z,2.53
2022-07-29T19:11:05.271Z,2.22
2022-07-29T19:14:11.191Z,2.10
2022-07-29T19:17:21.442Z,2.00
2022-07-29T19:20:26.859Z,2.20
2022-07-29T19:24:04.274Z,2.15
2022-07-29T19:27:00.822Z,2.05
2022-07-29T19:30:10.576Z,1.73
2022-07-29T19:33:19.272Z,1.98
2022-07-29T19:36:27.590Z,2.05
2022-07-29T19:39:35.479Z,1.75
2022-07-29T19:42:43.496Z,1.92
2022-07-29T19:45:49.296Z,2.08
2022-07-29T19:49:00.348Z,2.00
2022-07-29T19:52:06.165Z,2.00
2022-07-29T19:55:14.231Z,1.80
2022-07-29T19:58:19.658Z,2.00
2022-07-29T20:01:30.143Z,1.90
2022-07-29T20:04:38.833Z,1.70
2022-07-29T20:07:48.146Z,1.90
2022-07-29T20:10:55.036Z,1.80
2022-07-29T20:14:02.679Z,1.90
2022-07-29T20:17:08.189Z,2.30
2022-07-29T20:20:18.969Z,2.60
2022-07-29T20:23:24.414Z,2.13
2022-07-29T20:26:32.150Z,1.80
2022-07-29T20:29:37.666Z,2.20
2022-07-29T20:32:45.683Z,2.00
2022-07-29T20:35:54.082Z,1.95
2022-07-29T20:39:03.052Z,1.90
2022-07-29T20:42:09.141Z,2.28
2022-07-29T20:45:16.621Z,1.73
2022-07-29T20:48:22.238Z,1.92
2022-07-29T20:51:32.860Z,1.80
2022-07-29T20:54:49.660Z,1.80
2022-07-29T20:57:57.150Z,1.83
2022-07-29T21:01:02.856Z,2.10
2022-07-29T21:04:12.752Z,2.03
2022-07-29T21:07:21.318Z,1.83
2022-07-29T21:10:29.723Z,2.10
2022-07-29T21:13:38.695Z,2.10
2022-07-29T21:16:56.771Z,2.00
2022-07-29T21:20:02.501Z,1.92
2022-07-29T21:23:12.815Z,2.20
2022-07-29T21:26:18.534Z,2.10
2022-07-29T21:29:23.136Z,1.92
2022-07-29T21:32:30.359Z,2.30
2022-07-29T21:36:10.233Z,2.00
2022-07-29T21:39:07.391Z,1.88
2022-07-29T21:42:14.854Z,2.30
2022-07-29T21:45:20.504Z,2.38
2022-07-29T21:48:31.848Z,2.15
2022-07-29T21:51:38.954Z,2.10
2022-07-29T21:54:52.721Z,2.15
2022-07-29T21:58:00.613Z,2.20
2022-07-29T22:01:08.482Z,2.00
2022-07-29T22:04:14.472Z,2.28
2022-07-29T22:07:22.057Z,2.08
2022-07-29T22:10:32.498Z,2.22
2022-07-29T22:13:40.244Z,2.20
2022-07-29T22:16:45.877Z,2.38
2022-07-29T22:19:53.951Z,2.42
2022-07-29T22:22:59.511Z,2.40
2022-07-29T22:26:10.745Z,2.17
2022-07-29T22:29:17.888Z,2.15
2022-07-29T22:32:31.806Z,2.35
2022-07-29T22:35:37.571Z,2.45
2022-07-29T22:38:47.234Z,2.38
2022-07-29T22:41:57.405Z,2.40
2022-07-29T22:45:05.227Z,2.33
2022-07-29T22:48:10.846Z,2.40
2022-07-29T22:51:19.390Z,2.70
2022-07-29T22:54:25.124Z,2.53
2022-07-29T22:57:35.751Z,2.30
2022-07-29T23:00:41.645Z,2.40
2022-07-29T23:03:51.136Z,2.22
2022-07-29T23:06:57.449Z,2.25
2022-07-29T23:10:05.528Z,2.30
2022-07-29T23:13:14.196Z,2.30
2022-07-29T23:16:26.290Z,2.28
2022-07-29T23:19:32.739Z,2.40
2022-07-29T23:22:40.407Z,2.58
2022-07-29T23:25:46.062Z,2.60
2022-07-29T23:28:56.512Z,2.47
2022-07-29T23:32:02.145Z,2.42
2022-07-29T23:35:11.358Z,2.60
2022-07-29T23:38:17.224Z,2.30
2022-07-29T23:41:24.804Z,2.55
2022-07-29T23:44:33.139Z,2.53
2022-07-29T23:47:40.832Z,2.47
2022-07-29T23:50:46.881Z,2.17
2022-07-29T23:53:54.435Z,2.50
2022-07-29T23:57:00.237Z,2.28
